Time;durP1;ratioP1;P1;durP2;ratioP2;P2;SDS_P1;SDS_P2;PMS_P1;PMS_P2;Temp;Humidity;BMP_temperature;BMP_pressure;BME280_temperature;BME280_humidity;BME280_pressure;Samples;Min_cycle;Max_cycle;Signal;HPM_P1;HPM_P2
2023/06/23 00:00:09;;;;;;;22.33;19.38;;;;;;;16.59;93.17;100673.44;690336;28;1215;-85
2023/06/23 00:00:34;;;;;;;21.93;18.80;;;;;;;16.62;93.04;100685.75;691275;28;1267;-85
2023/06/23 00:00:55;;;;;;;21.50;18.40;;;;;;;16.66;92.97;100692.81;688402;28;1328;-85
2023/06/23 00:01:20;;;;;;;21.85;18.60;;;;;;;16.66;93.02;100675.22;688922;28;1425;-85
2023/06/23 00:01:40;;;;;;;23.13;18.80;;;;;;;16.62;93.18;100681.38;690232;28;1375;-85
2023/06/23 00:02:05;;;;;;;24.63;19.15;;;;;;;16.64;93.08;100686.63;693981;28;1279;-85
2023/06/23 00:02:25;;;;;;;23.55;18.50;;;;;;;16.58;93.08;100680.50;691359;28;1373;-84
2023/06/23 00:02:46;;;;;;;23.80;19.23;;;;;;;16.61;93.05;100679.63;688661;28;1231;-84
2023/06/23 00:03:07;;;;;;;23.13;19.38;;;;;;;16.66;92.99;100685.75;691354;28;1297;-85
2023/06/23 00:03:30;;;;;;;23.10;19.35;;;;;;;16.58;93.08;100682.25;691383;28;1235;-86
2023/06/23 00:03:54;;;;;;;21.75;19.13;;;;;;;16.68;93.17;100691.94;688608;28;1357;-85
2023/06/23 00:04:14;;;;;;;21.35;19.05;;;;;;;16.60;93.21;100672.59;688718;28;1296;-86
2023/06/23 00:04:35;;;;;;;21.15;18.85;;;;;;;16.62;93.06;100675.22;691648;28;1227;-85
2023/06/23 00:04:56;;;;;;;21.17;18.87;;;;;;;16.66;93.08;100683.13;694139;28;1206;-86
2023/06/23 00:05:16;;;;;;;20.90;18.58;;;;;;;16.68;93.18;100697.22;687853;28;1276;-85
2023/06/23 00:05:40;;;;;;;21.42;18.60;;;;;;;16.68;93.02;100691.03;688720;28;1214;-86
2023/06/23 00:06:03;;;;;;;22.25;18.88;;;;;;;16.64;93.25;100668.19;688749;28;1290;-85
2023/06/23 00:06:24;;;;;;;22.45;19.33;;;;;;;16.65;93.09;100681.38;688669;28;1301;-85
2023/06/23 00:06:45;;;;;;;23.13;19.90;;;;;;;16.63;93.42;100675.22;688710;28;1373;-83
2023/06/23 00:07:06;;;;;;;24.75;20.33;;;;;;;16.61;93.13;100679.63;691237;28;1332;-85
2023/06/23 00:07:26;;;;;;;25.57;20.23;;;;;;;16.61;93.25;100676.09;686076;28;1294;-86
2023/06/23 00:07:47;;;;;;;23.88;20.17;;;;;;;16.64;93.35;100674.34;690572;28;1215;-86
2023/06/23 00:08:07;;;;;;;22.75;20.15;;;;;;;16.60;93.15;100669.06;691177;28;1206;-85
2023/06/23 00:08:28;;;;;;;22.83;20.43;;;;;;;16.64;93.18;100676.97;694218;28;1224;-84
2023/06/23 00:08:49;;;;;;;23.45;20.05;;;;;;;16.64;93.30;100687.53;691353;28;1287;-85
2023/06/23 00:09:14;;;;;;;23.73;19.98;;;;;;;16.64;93.26;100684.00;693918;28;1254;-84
2023/06/23 00:09:37;;;;;;;25.60;21.20;;;;;;;16.65;92.96;100689.28;696028;28;1362;-85
2023/06/23 00:09:58;;;;;;;25.55;21.73;;;;;;;16.64;93.23;100695.44;696816;28;1235;-85
2023/06/23 00:10:19;;;;;;;26.23;21.98;;;;;;;16.64;93.32;100684.88;691071;28;1320;-83
2023/06/23 00:10:39;;;;;;;25.43;21.57;;;;;;;16.65;93.25;100694.53;688837;28;1109;-85
2023/06/23 00:11:01;;;;;;;25.50;21.93;;;;;;;16.67;93.08;100690.16;690973;28;1245;-85
2023/06/23 00:11:21;;;;;;;25.52;21.65;;;;;;;16.66;92.97;100677.84;688350;28;1977;-84
2023/06/23 00:11:42;;;;;;;25.07;21.57;;;;;;;16.66;93.02;100683.13;688831;28;1253;-84
2023/06/23 00:12:07;;;;;;;25.48;21.98;;;;;;;16.68;93.10;100691.94;696439;28;1365;-85
2023/06/23 00:12:28;;;;;;;24.67;21.65;;;;;;;16.67;93.08;100689.28;693876;28;1375;-84
2023/06/23 00:12:49;;;;;;;24.48;21.67;;;;;;;16.65;93.10;100684.00;693227;28;1219;-84
2023/06/23 00:13:11;;;;;;;26.98;22.35;;;;;;;16.63;93.13;100676.97;694092;28;1382;-85
2023/06/23 00:13:34;;;;;;;27.50;22.60;;;;;;;16.61;93.35;100690.16;691183;28;1323;-85
2023/06/23 00:13:56;;;;;;;26.23;22.38;;;;;;;16.66;93.16;100698.06;696737;28;1290;-83
2023/06/23 00:14:18;;;;;;;25.10;22.10;;;;;;;16.61;93.31;100692.81;694257;28;1141;-84
2023/06/23 00:14:39;;;;;;;24.83;21.63;;;;;;;16.62;93.35;100686.66;697027;28;941;-84
2023/06/23 00:15:02;;;;;;;26.80;22.17;;;;;;;16.63;93.32;100685.78;691289;28;1268;-85
2023/06/23 00:15:25;;;;;;;26.02;21.42;;;;;;;16.65;93.21;100693.69;688695;28;1294;-84
2023/06/23 00:15:46;;;;;;;24.65;20.50;;;;;;;16.65;93.23;100691.91;691389;28;1182;-84
2023/06/23 00:16:07;;;;;;;22.98;19.52;;;;;;;16.62;93.12;100686.66;688685;28;1290;-84
2023/06/23 00:16:27;;;;;;;22.17;19.67;;;;;;;16.64;93.17;100711.22;688662;28;1168;-85
2023/06/23 00:16:50;;;;;;;22.45;19.67;;;;;;;16.61;93.22;100689.28;688124;28;1229;-85
2023/06/23 00:17:10;;;;;;;23.60;19.80;;;;;;;16.61;93.30;100695.44;691378;28;1273;-85
2023/06/23 00:17:31;;;;;;;23.92;19.55;;;;;;;16.60;93.25;100688.41;691139;28;1325;-85
2023/06/23 00:17:52;;;;;;;25.13;20.25;;;;;;;16.58;93.40;100684.88;691258;28;1152;-84
2023/06/23 00:18:13;;;;;;;24.15;20.30;;;;;;;16.59;93.07;100686.63;685849;28;1322;-84
2023/06/23 00:18:36;;;;;;;22.98;20.30;;;;;;;16.58;93.19;100692.78;690765;28;1267;-85
2023/06/23 00:18:57;;;;;;;22.92;19.90;;;;;;;16.58;93.16;100690.13;691050;28;1397;-86
2023/06/23 00:19:17;;;;;;;24.20;20.80;;;;;;;16.55;93.12;100674.34;688400;28;1222;-85
2023/06/23 00:19:38;;;;;;;23.20;20.42;;;;;;;16.56;93.02;100689.28;688818;28;1326;-85
2023/06/23 00:19:59;;;;;;;23.30;20.08;;;;;;;16.59;93.25;100684.00;696624;28;1196;-85
2023/06/23 00:20:20;;;;;;;23.08;19.35;;;;;;;16.59;93.11;100686.63;696212;28;1144;-85
2023/06/23 00:20:41;;;;;;;23.87;19.13;;;;;;;16.58;93.33;100695.41;691428;28;1141;-85
2023/06/23 00:21:05;;;;;;;21.40;18.13;;;;;;;16.57;93.21;100693.66;691102;28;1382;-85
2023/06/23 00:21:26;;;;;;;20.08;16.88;;;;;;;16.56;93.17;100691.91;688706;28;1384;-85
2023/06/23 00:21:46;;;;;;;19.63;17.02;;;;;;;16.57;93.21;100693.66;691548;28;1332;-84
2023/06/23 00:22:07;;;;;;;20.80;17.37;;;;;;;16.52;93.07;100687.50;691390;28;1211;-85
2023/06/23 00:22:28;;;;;;;20.35;17.27;;;;;;;16.50;93.18;100673.44;694100;28;1171;-85
2023/06/23 00:22:49;;;;;;;20.92;17.27;;;;;;;16.53;93.19;100690.13;688712;28;1199;-85
2023/06/23 00:23:09;;;;;;;21.07;17.30;;;;;;;16.55;93.08;100683.09;694098;28;1163;-85
2023/06/23 00:23:30;;;;;;;21.05;17.60;;;;;;;16.49;93.08;100674.31;691244;28;1382;-85
2023/06/23 00:23:54;;;;;;;19.95;17.17;;;;;;;16.57;93.10;100688.38;688645;28;1211;-85
2023/06/23 00:24:15;;;;;;;19.85;17.05;;;;;;;16.47;93.00;100676.09;691426;28;1361;-85
2023/06/23 00:24:36;;;;;;;19.67;16.37;;;;;;;16.46;93.45;100677.81;691290;28;1193;-85
2023/06/23 00:24:57;;;;;;;19.75;16.23;;;;;;;16.53;93.34;100689.28;691301;28;1147;-85
2023/06/23 00:25:18;;;;;;;18.85;15.80;;;;;;;16.47;93.13;100687.47;685397;28;1334;-85
2023/06/23 00:25:39;;;;;;;18.45;15.50;;;;;;;16.57;92.78;100699.81;688797;28;1361;-85
2023/06/23 00:26:01;;;;;;;17.33;14.90;;;;;;;16.55;93.16;100690.16;691137;28;1164;-85
2023/06/23 00:26:24;;;;;;;17.17;14.60;;;;;;;16.47;93.15;100676.09;696573;28;1343;-85
2023/06/23 00:26:45;;;;;;;16.90;14.57;;;;;;;16.54;93.21;100688.41;696635;28;1240;-84
2023/06/23 00:27:12;;;;;;;15.93;14.10;;;;;;;16.49;93.23;100684.88;691334;28;1124;-85
2023/06/23 00:27:34;;;;;;;14.77;13.20;;;;;;;16.53;93.20;100687.50;693611;28;1370;-87
2023/06/23 00:27:54;;;;;;;15.18;12.77;;;;;;;16.52;93.21;100704.19;692928;28;1242;-85
2023/06/23 00:28:15;;;;;;;16.45;12.90;;;;;;;16.48;93.24;100689.28;691430;28;1165;-85
2023/06/23 00:28:36;;;;;;;16.80;12.60;;;;;;;16.50;93.29;100692.78;691858;28;1193;-85
2023/06/23 00:28:57;;;;;;;17.60;13.30;;;;;;;16.54;93.09;100691.03;694262;28;1268;-85
2023/06/23 00:29:18;;;;;;;17.50;13.55;;;;;;;16.50;93.15;100697.16;693683;28;1161;-82
2023/06/23 00:29:39;;;;;;;16.77;13.65;;;;;;;16.54;92.89;100704.19;694152;28;1150;-84
2023/06/23 00:30:05;;;;;;;15.80;13.40;;;;;;;16.46;93.03;100700.66;691275;28;1208;-85
2023/06/23 00:30:28;;;;;;;15.93;13.70;;;;;;;16.46;93.00;100695.41;696681;28;1254;-85
2023/06/23 00:30:49;;;;;;;16.75;14.07;;;;;;;16.52;93.25;100721.72;691467;28;1281;-84
2023/06/23 00:31:12;;;;;;;16.67;13.80;;;;;;;16.48;93.02;100706.81;688406;28;1985;-84
2023/06/23 00:31:33;;;;;;;15.35;13.00;;;;;;;16.47;92.99;100711.19;693626;28;1225;-84
2023/06/23 00:31:53;;;;;;;16.33;12.80;;;;;;;16.48;93.23;100717.34;694051;28;900;-84
2023/06/23 00:32:14;;;;;;;16.30;13.00;;;;;;;16.52;92.92;100729.63;688796;28;1413;-85
2023/06/23 00:32:35;;;;;;;15.93;13.00;;;;;;;16.51;93.09;100725.25;694196;28;1326;-85
2023/06/23 00:32:56;;;;;;;15.20;12.52;;;;;;;16.49;92.96;100722.63;691314;28;1300;-84
2023/06/23 00:33:18;;;;;;;15.35;12.30;;;;;;;16.49;93.07;100734.91;688518;28;1447;-84
2023/06/23 00:33:41;;;;;;;14.90;11.90;;;;;;;16.45;92.98;100718.22;694207;28;1370;-85
2023/06/23 00:34:05;;;;;;;13.93;12.00;;;;;;;16.48;92.84;100707.69;688657;28;1219;-85
2023/06/23 00:34:25;;;;;;;14.48;12.00;;;;;;;16.50;92.77;100715.59;688566;28;1324;-85
2023/06/23 00:34:47;;;;;;;15.30;12.10;;;;;;;16.48;92.78;100730.53;689070;28;1279;-83
2023/06/23 00:35:09;;;;;;;15.05;12.10;;;;;;;16.55;92.70;100719.97;689011;28;1249;-85
2023/06/23 00:35:30;;;;;;;14.45;12.88;;;;;;;16.47;92.55;100728.75;685976;28;1467;-85
2023/06/23 00:35:52;;;;;;;14.77;12.98;;;;;;;16.57;92.66;100741.06;688721;28;1493;-85
2023/06/23 00:36:13;;;;;;;16.27;13.25;;;;;;;16.51;92.53;100725.25;691305;28;1152;-86
2023/06/23 00:36:34;;;;;;;15.50;12.75;;;;;;;16.50;92.47;100729.66;691487;28;1090;-85
2023/06/23 00:36:55;;;;;;;15.20;12.82;;;;;;;16.53;92.18;100744.59;688359;28;1204;-85
2023/06/23 00:37:15;;;;;;;14.07;12.27;;;;;;;16.53;92.50;100734.06;688427;28;1246;-85
2023/06/23 00:37:37;;;;;;;14.30;12.30;;;;;;;16.53;92.23;100744.59;688563;28;1037;-85
2023/06/23 00:37:58;;;;;;;14.80;12.30;;;;;;;16.48;92.18;100725.25;691269;28;1207;-85
2023/06/23 00:38:19;;;;;;;14.38;12.40;;;;;;;16.50;92.17;100734.03;696580;28;1203;-85
2023/06/23 00:38:40;;;;;;;13.73;12.15;;;;;;;16.49;92.20;100738.44;691463;28;890;-85
2023/06/23 00:39:02;;;;;;;14.30;12.20;;;;;;;16.42;92.16;100731.38;691169;28;1164;-85
2023/06/23 00:39:23;;;;;;;15.32;12.20;;;;;;;16.45;92.22;100726.13;691280;28;1285;-86
2023/06/23 00:39:44;;;;;;;15.70;12.40;;;;;;;16.44;92.25;100734.91;687064;28;1372;-85
2023/06/23 00:40:12;;;;;;;16.23;12.32;;;;;;;16.41;92.22;100735.75;693616;28;1351;-85
2023/06/23 00:40:34;;;;;;;17.17;12.85;;;;;;;16.51;91.96;100759.50;691223;28;1305;-85
2023/06/23 00:40:55;;;;;;;15.95;12.52;;;;;;;16.47;92.08;100749.84;688656;28;1267;-85
2023/06/23 00:41:16;;;;;;;14.82;12.68;;;;;;;16.38;92.00;100735.75;691248;28;1366;-85
2023/06/23 00:41:40;;;;;;;14.80;12.55;;;;;;;16.44;92.05;100748.97;688768;28;1216;-85
2023/06/23 00:42:02;;;;;;;15.57;13.10;;;;;;;16.40;92.08;100748.91;691230;28;1191;-85
2023/06/23 00:42:25;;;;;;;15.25;13.07;;;;;;;16.47;92.19;100755.09;694036;28;1235;-86
2023/06/23 00:42:48;;;;;;;14.93;13.00;;;;;;;16.40;92.12;100752.44;694212;28;1221;-85
2023/06/23 00:43:08;;;;;;;14.13;12.50;;;;;;;16.38;92.27;100746.28;688703;28;1219;-86
2023/06/23 00:43:30;;;;;;;14.00;12.48;;;;;;;16.42;92.13;100774.38;688483;28;1245;-85
2023/06/23 00:43:51;;;;;;;13.93;12.10;;;;;;;16.38;92.30;100750.66;688434;28;1224;-85
2023/06/23 00:44:12;;;;;;;15.30;12.20;;;;;;;16.33;92.11;100765.59;694467;28;1273;-85
2023/06/23 00:44:37;;;;;;;16.00;12.63;;;;;;;16.34;92.13;100757.69;687899;28;1229;-85
2023/06/23 00:44:58;;;;;;;15.18;12.57;;;;;;;16.39;92.25;100762.97;693855;28;1277;-86
2023/06/23 00:45:21;;;;;;;15.15;12.80;;;;;;;16.40;92.24;100781.41;688205;28;1407;-85
2023/06/23 00:45:43;;;;;;;15.02;12.32;;;;;;;16.37;92.05;100784.03;693942;28;1265;-86
2023/06/23 00:46:15;;;;;;;16.67;12.60;;;;;;;16.31;92.13;100757.69;693929;28;1163;-86
2023/06/23 00:46:36;;;;;;;18.23;12.07;;;;;;;16.41;92.05;100777.03;690206;28;1311;-85
2023/06/23 00:46:57;;;;;;;18.58;12.35;;;;;;;16.29;92.02;100775.22;690804;28;1442;-86
2023/06/23 00:47:18;;;;;;;14.15;11.85;;;;;;;16.38;92.01;100777.00;685325;28;1320;-86
2023/06/23 00:47:44;;;;;;;15.70;12.32;;;;;;;16.34;92.24;100785.78;688687;28;1165;-86
2023/06/23 00:48:08;;;;;;;15.85;12.40;;;;;;;16.39;92.02;100798.09;688253;28;1216;-86
2023/06/23 00:48:29;;;;;;;15.95;12.20;;;;;;;16.32;91.95;100777.88;688576;28;1293;-86
2023/06/23 00:48:50;;;;;;;15.93;11.70;;;;;;;16.34;92.09;100786.66;688986;28;1138;-86
2023/06/23 00:49:14;;;;;;;15.40;11.40;;;;;;;16.31;92.16;100781.38;688631;28;1187;-86
2023/06/23 00:49:35;;;;;;;14.10;11.32;;;;;;;16.38;92.10;100788.44;688670;28;1212;-85
2023/06/23 00:49:58;;;;;;;12.40;11.10;;;;;;;16.36;92.15;100792.81;688650;28;1343;-86
2023/06/23 00:50:20;;;;;;;14.15;11.50;;;;;;;16.26;92.06;100785.72;688270;28;1315;-86
2023/06/23 00:50:43;;;;;;;15.15;11.30;;;;;;;16.30;92.09;100792.78;691436;28;1427;-86
2023/06/23 00:51:05;;;;;;;15.60;11.43;;;;;;;16.34;92.10;100797.19;688213;28;1349;-86
2023/06/23 00:51:30;;;;;;;14.05;11.00;;;;;;;16.36;91.94;100806.00;693928;28;1298;-86
2023/06/23 00:51:52;;;;;;;14.15;10.50;;;;;;;16.27;91.99;100790.13;693920;28;1294;-86
2023/06/23 00:52:13;;;;;;;14.60;10.70;;;;;;;16.32;91.96;100804.19;691218;28;1147;-86
2023/06/23 00:52:34;;;;;;;14.88;10.82;;;;;;;16.33;92.06;100805.97;685754;28;1358;-87
2023/06/23 00:52:55;;;;;;;13.52;11.07;;;;;;;16.31;92.04;100798.03;685953;28;1222;-86
2023/06/23 00:53:17;;;;;;;13.60;11.00;;;;;;;16.32;92.01;100814.72;691075;28;1345;-86
2023/06/23 00:53:38;;;;;;;14.63;11.15;;;;;;;16.34;92.07;100809.47;690569;28;1138;-86
2023/06/23 00:53:59;;;;;;;14.75;11.40;;;;;;;16.31;91.96;100810.34;688510;28;1160;-86
2023/06/23 00:54:28;;;;;;;15.77;11.40;;;;;;;16.30;92.00;100806.81;693203;28;1385;-86
2023/06/23 00:54:49;;;;;;;15.88;12.25;;;;;;;16.33;91.90;100811.22;693652;28;1130;-86
2023/06/23 00:55:09;;;;;;;14.65;12.02;;;;;;;16.47;91.46;100810.41;691405;28;1191;-86
2023/06/23 00:55:30;;;;;;;14.55;12.20;;;;;;;16.49;91.25;100804.28;693842;28;1308;-86
2023/06/23 00:55:51;;;;;;;14.20;12.07;;;;;;;16.53;91.16;100815.72;690739;28;1349;-87
2023/06/23 00:56:13;;;;;;;14.55;12.27;;;;;;;16.53;90.91;100819.22;691633;28;1368;-86
2023/06/23 00:56:35;;;;;;;13.95;12.05;;;;;;;16.50;90.90;100813.03;693276;28;1215;-86
2023/06/23 00:56:58;;;;;;;14.52;11.82;;;;;;;16.41;90.95;100808.66;693895;28;1234;-86
2023/06/23 00:57:19;;;;;;;15.75;12.13;;;;;;;16.39;91.06;100807.72;693146;28;1230;-87
2023/06/23 00:57:40;;;;;;;15.38;12.00;;;;;;;16.43;91.05;100813.00;685893;28;1301;-87
2023/06/23 00:58:01;;;;;;;14.43;11.90;;;;;;;16.43;91.10;100807.75;691009;28;1243;-86
2023/06/23 00:58:22;;;;;;;13.32;11.93;;;;;;;16.52;90.93;100827.09;694137;28;1363;-86
2023/06/23 00:58:45;;;;;;;13.90;12.23;;;;;;;16.54;90.79;100820.09;688756;28;1200;-86
2023/06/23 00:59:07;;;;;;;14.95;12.40;;;;;;;16.50;90.63;100813.03;691317;28;1341;-86
2023/06/23 00:59:28;;;;;;;14.77;12.18;;;;;;;16.55;90.52;100824.50;691276;28;1179;-87
2023/06/23 00:59:50;;;;;;;16.00;12.25;;;;;;;16.58;90.53;100816.59;690524;28;1802;-86
2023/06/23 01:00:17;;;;;;;14.88;11.88;;;;;;;16.56;90.34;100829.78;690912;28;1295;-84
2023/06/23 01:00:41;;;;;;;15.50;11.90;;;;;;;16.55;90.15;100822.72;694025;28;1292;-86
2023/06/23 01:01:05;;;;;;;16.02;12.30;;;;;;;16.58;90.26;100816.59;690622;28;1172;-87
2023/06/23 01:01:26;;;;;;;15.95;12.20;;;;;;;16.55;90.29;100813.97;685889;28;1326;-87
2023/06/23 01:01:46;;;;;;;14.70;12.05;;;;;;;16.65;89.96;100828.06;691178;28;1344;-86
2023/06/23 01:02:07;;;;;;;16.48;12.20;;;;;;;16.65;90.02;100839.44;688561;28;1243;-87
2023/06/23 01:02:28;;;;;;;16.97;12.23;;;;;;;16.62;90.10;100838.56;688559;28;1282;-86
2023/06/23 01:02:53;;;;;;;16.20;12.35;;;;;;;16.66;89.91;100822.75;691543;28;1488;-87
2023/06/23 01:03:14;;;;;;;13.75;12.02;;;;;;;16.54;89.91;100830.66;691425;28;1286;-87
2023/06/23 01:03:37;;;;;;;13.32;11.68;;;;;;;16.65;90.06;100841.22;687965;28;1118;-86
2023/06/23 01:03:59;;;;;;;13.18;11.63;;;;;;;16.55;89.96;100822.72;688234;28;1097;-87
2023/06/23 01:04:22;;;;;;;12.57;11.27;;;;;;;16.60;90.03;100835.94;688739;28;1431;-87
2023/06/23 01:04:47;;;;;;;14.05;11.60;;;;;;;16.58;89.96;100827.13;690462;28;1240;-87
2023/06/23 01:05:09;;;;;;;15.68;12.18;;;;;;;16.62;89.85;100834.19;694017;28;1214;-87
2023/06/23 01:05:39;;;;;;;14.32;11.75;;;;;;;16.61;90.04;100829.78;691251;28;1129;-86
2023/06/23 01:06:24;;;;;;;14.82;11.82;;;;;;;16.64;89.73;100837.69;692011;28;1189;-86
2023/06/23 01:07:01;;;;;;;13.60;11.55;;;;;;;16.62;89.85;100836.81;693953;28;1303;-86
2023/06/23 01:07:35;;;;;;;14.50;11.15;;;;;;;16.59;89.63;100828.88;691217;28;1383;-87
2023/06/23 01:08:15;;;;;;;16.67;12.25;;;;;;;16.69;89.78;100856.16;696510;28;1269;-87
2023/06/23 01:08:55;;;;;;;14.32;12.50;;;;;;;16.68;89.40;100850.03;696612;28;1310;-87
2023/06/23 01:09:32;;;;;;;14.15;12.60;;;;;;;16.65;89.51;100842.09;686729;28;1403;-86
2023/06/23 01:10:35;;;;;;;14.80;12.32;;;;;;;16.65;89.67;100846.50;693922;28;1334;-87
2023/06/23 01:11:08;;;;;;;15.60;12.65;;;;;;;16.63;89.72;100851.75;693697;28;1245;-86
2023/06/23 01:11:42;;;;;;;14.82;11.85;;;;;;;16.61;89.64;100853.50;688451;28;1367;-86
2023/06/23 01:12:11;;;;;;;14.85;12.20;;;;;;;16.67;89.55;100857.91;687954;28;1200;-86
2023/06/23 01:12:42;;;;;;;14.60;12.25;;;;;;;16.70;89.49;100864.06;691139;28;1256;-87
2023/06/23 01:13:03;;;;;;;14.02;12.02;;;;;;;16.69;89.56;100864.94;691076;28;1311;-86
2023/06/23 01:13:55;;;;;;;13.07;11.60;;;;;;;16.65;89.38;100851.75;696707;28;1147;-87
2023/06/23 01:14:25;;;;;;;13.13;11.82;;;;;;;16.69;89.27;100854.41;691211;28;1253;-87
2023/06/23 01:15:02;;;;;;;13.90;12.10;;;;;;;16.68;89.40;100864.94;691256;28;1153;-87
2023/06/23 01:15:33;;;;;;;13.93;11.68;;;;;;;16.69;89.35;100856.16;691169;28;1133;-86
2023/06/23 01:16:01;;;;;;;13.80;11.73;;;;;;;16.67;89.18;100848.22;693752;28;1297;-87
2023/06/23 01:16:32;;;;;;;15.57;12.27;;;;;;;16.74;89.28;100853.53;693846;28;1323;-87
2023/06/23 01:17:16;;;;;;;16.02;11.85;;;;;;;16.70;89.32;100857.91;693738;28;1406;-86
2023/06/23 01:17:48;;;;;;;15.45;12.40;;;;;;;16.73;88.98;100847.41;693062;28;1390;-87
2023/06/23 01:18:31;;;;;;;16.00;12.70;;;;;;;16.73;88.87;100876.38;696809;28;1274;-88
2023/06/23 01:19:19;;;;;;;17.33;12.73;;;;;;;16.70;89.10;100864.06;695843;28;1365;-86
2023/06/23 01:19:48;;;;;;;15.50;13.02;;;;;;;16.75;88.99;100866.72;691403;28;1196;-86
2023/06/23 01:20:26;;;;;;;15.55;13.55;;;;;;;16.69;89.16;100866.69;691307;28;1357;-87
2023/06/23 01:20:52;;;;;;;15.57;13.07;;;;;;;16.70;89.16;100868.44;691240;28;1367;-86
2023/06/23 01:21:19;;;;;;;15.68;12.68;;;;;;;16.68;89.18;100865.84;688636;28;1216;-87
2023/06/23 01:21:46;;;;;;;15.10;13.00;;;;;;;16.69;89.21;100880.75;688758;28;1422;-87
2023/06/23 01:22:26;;;;;;;14.30;12.80;;;;;;;16.69;89.08;100872.84;688294;28;1621;-87
2023/06/23 01:23:14;;;;;;;14.30;12.80;;;;;;;16.70;89.14;100873.72;691269;28;1286;-87
2023/06/23 01:24:03;;;;;;;15.80;13.30;;;;;;;16.67;89.33;100873.72;691745;28;1270;-87
2023/06/23 01:24:46;;;;;;;16.40;13.57;;;;;;;16.71;89.30;100891.28;688460;28;1296;-86
2023/06/23 01:25:48;;;;;;;15.50;12.73;;;;;;;16.70;89.45;100890.44;688475;28;1272;-86
2023/06/23 01:26:27;;;;;;;15.77;13.63;;;;;;;16.72;89.32;100898.34;691208;28;1354;-87
2023/06/23 01:27:06;;;;;;;15.52;13.25;;;;;;;16.62;89.37;100873.69;691065;28;1460;-86
2023/06/23 01:27:48;;;;;;;16.48;13.05;;;;;;;16.75;89.29;100902.72;688615;28;1346;-86
2023/06/23 01:28:11;;;;;;;19.50;14.25;;;;;;;16.74;89.14;100900.97;688591;28;1426;-86
2023/06/23 01:28:52;;;;;;;19.35;14.18;;;;;;;16.72;89.35;100896.56;688290;28;1317;-86
2023/06/23 01:29:26;;;;;;;17.58;14.00;;;;;;;16.78;89.11;100895.72;688979;28;1298;-86
2023/06/23 01:29:52;;;;;;;17.38;14.43;;;;;;;16.72;88.69;100890.44;690733;28;1276;-86
2023/06/23 01:30:17;;;;;;;18.17;14.63;;;;;;;16.73;88.83;100886.94;688606;28;1525;-86
2023/06/23 01:30:43;;;;;;;18.30;14.82;;;;;;;16.78;88.63;100905.41;685991;28;1417;-86
2023/06/23 01:31:07;;;;;;;17.95;14.98;;;;;;;16.76;88.59;100901.84;688327;28;1183;-86
2023/06/23 01:31:47;;;;;;;17.50;15.02;;;;;;;16.70;88.67;100900.97;693096;28;1273;-87
2023/06/23 01:32:26;;;;;;;16.95;14.60;;;;;;;16.66;88.84;100914.97;694011;28;1157;-86
2023/06/23 01:32:54;;;;;;;20.15;15.10;;;;;;;16.71;89.21;100912.38;691082;28;1192;-86
2023/06/23 01:33:23;;;;;;;18.08;15.50;;;;;;;16.69;89.25;100922.94;691310;28;1453;-86
2023/06/23 01:33:51;;;;;;;17.02;15.00;;;;;;;16.58;89.35;100890.34;691245;28;1282;-86
2023/06/23 01:34:22;;;;;;;17.33;14.55;;;;;;;16.62;89.37;100901.78;690501;28;1263;-86
2023/06/23 01:34:52;;;;;;;17.20;14.20;;;;;;;16.60;89.03;100906.19;693962;28;1364;-86
2023/06/23 01:35:21;;;;;;;17.70;14.73;;;;;;;16.64;89.45;100908.84;694006;28;1181;-87
2023/06/23 01:35:49;;;;;;;18.02;14.70;;;;;;;16.65;89.33;100913.22;691665;28;1284;-87
2023/06/23 01:36:18;;;;;;;16.95;14.30;;;;;;;16.61;89.35;100911.47;696689;28;1332;-86
2023/06/23 01:36:44;;;;;;;17.05;14.52;;;;;;;16.62;89.40;100912.31;690812;28;1307;-85
2023/06/23 01:37:10;;;;;;;19.00;14.70;;;;;;;16.69;89.48;100915.03;690495;28;1307;-86
2023/06/23 01:37:34;;;;;;;19.35;15.13;;;;;;;16.68;89.31;100894.81;693715;28;1223;-86
2023/06/23 01:38:04;;;;;;;19.02;15.23;;;;;;;16.80;88.90;100907.16;693982;28;1253;-85
2023/06/23 01:38:36;;;;;;;19.35;15.00;;;;;;;16.83;88.88;100915.06;693977;28;1324;-86
2023/06/23 01:39:03;;;;;;;17.35;15.15;;;;;;;16.68;88.80;100918.53;691832;28;1216;-86
2023/06/23 01:39:31;;;;;;;17.88;15.25;;;;;;;16.68;89.00;100933.44;691107;28;1401;-86
2023/06/23 01:39:57;;;;;;;17.75;14.60;;;;;;;16.65;88.87;100929.03;690648;28;1318;-86
2023/06/23 01:40:22;;;;;;;17.50;14.70;;;;;;;16.65;89.25;100928.19;691155;28;1241;-85
2023/06/23 01:40:48;;;;;;;17.02;14.77;;;;;;;16.62;89.30;100934.31;693984;28;1251;-86
2023/06/23 01:41:16;;;;;;;17.35;14.75;;;;;;;16.64;89.52;100927.28;691276;28;1340;-86
2023/06/23 01:41:45;;;;;;;17.50;14.55;;;;;;;16.64;89.55;100935.19;691476;28;1120;-86
2023/06/23 01:42:10;;;;;;;17.05;14.60;;;;;;;16.58;89.51;100932.50;691144;28;1379;-86
2023/06/23 01:42:34;;;;;;;17.13;14.85;;;;;;;16.62;89.67;100936.94;691163;28;1207;-86
2023/06/23 01:42:57;;;;;;;16.58;14.20;;;;;;;16.61;89.70;100940.44;691252;28;1261;-85
2023/06/23 01:43:29;;;;;;;17.48;13.75;;;;;;;16.62;89.70;100934.31;688091;28;1256;-85
2023/06/23 01:43:55;;;;;;;17.63;14.18;;;;;;;16.63;89.75;100941.31;690713;28;1244;-86
2023/06/23 01:44:17;;;;;;;16.25;14.07;;;;;;;16.61;89.73;100943.09;691283;28;1306;-86
2023/06/23 01:44:43;;;;;;;16.90;14.25;;;;;;;16.58;89.85;100933.41;691267;28;1255;-87
2023/06/23 01:45:07;;;;;;;18.60;14.77;;;;;;;16.62;89.68;100942.19;688369;28;1315;-86
2023/06/23 01:45:28;;;;;;;18.85;14.95;;;;;;;16.68;89.62;100954.53;690887;28;1323;-86
2023/06/23 01:45:55;;;;;;;18.02;15.00;;;;;;;16.64;89.60;100950.09;688901;28;1296;-86
2023/06/23 01:46:25;;;;;;;17.00;14.98;;;;;;;16.65;89.51;100950.13;691150;28;1302;-85
2023/06/23 01:46:53;;;;;;;16.23;14.20;;;;;;;16.67;89.44;100955.41;696388;28;1334;-86
2023/06/23 01:47:26;;;;;;;17.15;14.32;;;;;;;16.67;89.42;100952.75;696707;28;1196;-85
2023/06/23 01:47:49;;;;;;;19.60;15.02;;;;;;;16.68;89.58;100958.06;691071;28;1204;-85
2023/06/23 01:48:13;;;;;;;18.40;14.70;;;;;;;16.65;89.68;100960.66;693940;28;1282;-86
2023/06/23 01:48:37;;;;;;;17.60;14.02;;;;;;;16.66;89.63;100957.13;696492;28;1245;-86
2023/06/23 01:49:00;;;;;;;17.50;14.32;;;;;;;16.65;89.58;100951.88;688461;28;1278;-86
2023/06/23 01:49:26;;;;;;;18.33;14.77;;;;;;;16.67;89.68;100963.31;690943;28;1268;-86
2023/06/23 01:49:48;;;;;;;18.40;14.90;;;;;;;16.63;89.53;100962.41;691258;28;1351;-86
2023/06/23 01:50:12;;;;;;;19.02;14.65;;;;;;;16.68;89.70;100965.06;693873;28;1234;-86
2023/06/23 01:50:37;;;;;;;18.55;14.77;;;;;;;16.65;89.63;100958.03;688361;28;1403;-89
2023/06/23 01:51:02;;;;;;;19.00;15.35;;;;;;;16.64;89.61;100966.81;685755;28;1212;-86
2023/06/23 01:51:28;;;;;;;18.50;14.68;;;;;;;16.62;89.58;100944.84;688408;28;1904;-87
2023/06/23 01:51:51;;;;;;;18.13;14.85;;;;;;;16.62;89.85;100950.09;688285;28;1136;-86
2023/06/23 01:52:13;;;;;;;18.30;15.18;;;;;;;16.67;89.85;100972.06;696607;28;1274;-86
2023/06/23 01:52:39;;;;;;;19.23;15.50;;;;;;;16.64;89.76;100958.91;696498;28;1383;-86
2023/06/23 01:53:03;;;;;;;18.48;15.18;;;;;;;16.68;89.56;100965.97;691185;28;1318;-86
2023/06/23 01:53:26;;;;;;;19.88;15.00;;;;;;;16.69;89.57;100965.09;688454;28;1132;-85
2023/06/23 01:53:49;;;;;;;18.90;15.18;;;;;;;16.70;89.62;100969.47;690714;28;1299;-85
2023/06/23 01:54:12;;;;;;;19.00;15.10;;;;;;;16.66;89.64;100965.03;696734;28;1332;-85
2023/06/23 01:54:39;;;;;;;18.17;14.93;;;;;;;16.63;89.78;100957.13;688902;28;1372;-86
2023/06/23 01:55:01;;;;;;;17.65;14.70;;;;;;;16.70;89.57;100976.50;693904;28;1295;-86
2023/06/23 01:55:24;;;;;;;17.48;14.57;;;;;;;16.70;89.48;100980.03;686306;28;1266;-85
2023/06/23 01:55:45;;;;;;;18.08;15.18;;;;;;;16.72;89.57;100980.91;691068;28;1394;-85
2023/06/23 01:56:07;;;;;;;18.10;15.30;;;;;;;16.67;89.73;100963.31;685189;28;1411;-86